sensor_id;sensor_type;location;lat;lon;timestamp;P1;durP1;ratioP1;P2;durP2;ratioP2
11300;SDS011;5706;50.650;13.380;2022-08-07T00:02:13;3.43;;;3.13;;
11300;SDS011;5706;50.650;13.380;2022-08-07T00:04:42;4.33;;;3.00;;
11300;SDS011;5706;50.650;13.380;2022-08-07T00:07:10;3.03;;;2.83;;
11300;SDS011;5706;50.650;13.380;2022-08-07T00:09:37;2.80;;;2.60;;
11300;SDS011;5706;50.650;13.380;2022-08-07T00:12:06;3.07;;;2.70;;
11300;SDS011;5706;50.650;13.380;2022-08-07T00:14:34;3.27;;;2.70;;
11300;SDS011;5706;50.650;13.380;2022-08-07T00:17:02;2.60;;;2.40;;
11300;SDS011;5706;50.650;13.380;2022-08-07T00:19:30;5.00;;;2.67;;
11300;SDS011;5706;50.650;13.380;2022-08-07T00:21:59;3.63;;;2.70;;
11300;SDS011;5706;50.650;13.380;2022-08-07T00:24:28;3.07;;;2.30;;
11300;SDS011;5706;50.650;13.380;2022-08-07T00:26:56;4.27;;;2.30;;
11300;SDS011;5706;50.650;13.380;2022-08-07T00:29:23;2.83;;;2.17;;
11300;SDS011;5706;50.650;13.380;2022-08-07T00:31:53;4.70;;;2.70;;
11300;SDS011;5706;50.650;13.380;2022-08-07T00:34:23;3.10;;;2.60;;
11300;SDS011;5706;50.650;13.380;2022-08-07T00:36:51;2.70;;;1.93;;
11300;SDS011;5706;50.650;13.380;2022-08-07T00:39:20;2.50;;;2.23;;
11300;SDS011;5706;50.650;13.380;2022-08-07T00:41:48;3.17;;;2.67;;
11300;SDS011;5706;50.650;13.380;2022-08-07T00:44:18;2.67;;;2.47;;
11300;SDS011;5706;50.650;13.380;2022-08-07T00:46:45;5.40;;;2.50;;
11300;SDS011;5706;50.650;13.380;2022-08-07T00:49:13;3.13;;;2.30;;
11300;SDS011;5706;50.650;13.380;2022-08-07T00:51:41;2.80;;;2.50;;
11300;SDS011;5706;50.650;13.380;2022-08-07T00:54:09;2.73;;;2.47;;
11300;SDS011;5706;50.650;13.380;2022-08-07T00:56:40;2.40;;;2.20;;
11300;SDS011;5706;50.650;13.380;2022-08-07T00:59:08;3.80;;;2.77;;
11300;SDS011;5706;50.650;13.380;2022-08-07T01:01:36;2.70;;;2.50;;
11300;SDS011;5706;50.650;13.380;2022-08-07T01:04:04;2.80;;;2.10;;
11300;SDS011;5706;50.650;13.380;2022-08-07T01:06:34;2.73;;;2.53;;
11300;SDS011;5706;50.650;13.380;2022-08-07T01:09:02;2.50;;;2.30;;
11300;SDS011;5706;50.650;13.380;2022-08-07T01:11:30;3.47;;;2.40;;
11300;SDS011;5706;50.650;13.380;2022-08-07T01:14:00;2.93;;;2.37;;
11300;SDS011;5706;50.650;13.380;2022-08-07T01:16:29;2.60;;;2.40;;
11300;SDS011;5706;50.650;13.380;2022-08-07T01:18:57;4.00;;;2.40;;
11300;SDS011;5706;50.650;13.380;2022-08-07T01:21:26;2.80;;;2.60;;
11300;SDS011;5706;50.650;13.380;2022-08-07T01:23:54;2.33;;;2.20;;
11300;SDS011;5706;50.650;13.380;2022-08-07T01:26:26;3.17;;;2.33;;
11300;SDS011;5706;50.650;13.380;2022-08-07T01:28:54;2.50;;;2.30;;
11300;SDS011;5706;50.650;13.380;2022-08-07T01:31:22;2.63;;;2.30;;
11300;SDS011;5706;50.650;13.380;2022-08-07T01:33:52;2.43;;;2.10;;
11300;SDS011;5706;50.650;13.380;2022-08-07T01:36:20;2.17;;;1.97;;
11300;SDS011;5706;50.650;13.380;2022-08-07T01:38:49;2.27;;;2.07;;
11300;SDS011;5706;50.650;13.380;2022-08-07T01:41:18;2.30;;;2.00;;
11300;SDS011;5706;50.650;13.380;2022-08-07T01:43:47;2.77;;;2.13;;
11300;SDS011;5706;50.650;13.380;2022-08-07T01:46:16;2.30;;;2.10;;
11300;SDS011;5706;50.650;13.380;2022-08-07T01:48:46;2.57;;;2.13;;
11300;SDS011;5706;50.650;13.380;2022-08-07T01:51:16;4.47;;;1.93;;
11300;SDS011;5706;50.650;13.380;2022-08-07T01:53:47;2.30;;;2.10;;
11300;SDS011;5706;50.650;13.380;2022-08-07T01:56:21;1.90;;;1.80;;
11300;SDS011;5706;50.650;13.380;2022-08-07T01:58:57;2.57;;;2.30;;
11300;SDS011;5706;50.650;13.380;2022-08-07T02:01:30;2.53;;;2.20;;
11300;SDS011;5706;50.650;13.380;2022-08-07T02:04:10;2.30;;;2.10;;
11300;SDS011;5706;50.650;13.380;2022-08-07T02:06:45;2.57;;;2.37;;
11300;SDS011;5706;50.650;13.380;2022-08-07T02:09:16;2.47;;;2.27;;
11300;SDS011;5706;50.650;13.380;2022-08-07T02:11:47;2.30;;;2.10;;
11300;SDS011;5706;50.650;13.380;2022-08-07T02:14:18;2.37;;;1.83;;
11300;SDS011;5706;50.650;13.380;2022-08-07T02:16:47;1.60;;;1.50;;
11300;SDS011;5706;50.650;13.380;2022-08-07T02:19:18;2.43;;;2.23;;
11300;SDS011;5706;50.650;13.380;2022-08-07T02:21:47;3.50;;;2.20;;
11300;SDS011;5706;50.650;13.380;2022-08-07T02:24:21;2.30;;;2.10;;
11300;SDS011;5706;50.650;13.380;2022-08-07T02:26:50;2.30;;;2.10;;
11300;SDS011;5706;50.650;13.380;2022-08-07T02:29:19;4.27;;;2.20;;
11300;SDS011;5706;50.650;13.380;2022-08-07T02:31:47;2.10;;;1.90;;
11300;SDS011;5706;50.650;13.380;2022-08-07T02:34:16;1.93;;;1.83;;
11300;SDS011;5706;50.650;13.380;2022-08-07T02:36:45;2.10;;;1.67;;
11300;SDS011;5706;50.650;13.380;2022-08-07T02:39:14;2.20;;;2.00;;
11300;SDS011;5706;50.650;13.380;2022-08-07T02:41:45;1.90;;;1.80;;
11300;SDS011;5706;50.650;13.380;2022-08-07T02:44:14;2.03;;;1.87;;
11300;SDS011;5706;50.650;13.380;2022-08-07T02:46:43;2.47;;;2.27;;
11300;SDS011;5706;50.650;13.380;2022-08-07T02:49:14;2.30;;;2.07;;
11300;SDS011;5706;50.650;13.380;2022-08-07T02:51:42;1.97;;;1.87;;
11300;SDS011;5706;50.650;13.380;2022-08-07T02:54:11;1.77;;;1.67;;
11300;SDS011;5706;50.650;13.380;2022-08-07T02:56:40;2.40;;;2.00;;
11300;SDS011;5706;50.650;13.380;2022-08-07T02:59:11;1.80;;;1.70;;
11300;SDS011;5706;50.650;13.380;2022-08-07T03:01:44;4.83;;;2.30;;
11300;SDS011;5706;50.650;13.380;2022-08-07T03:04:13;2.23;;;2.03;;
11300;SDS011;5706;50.650;13.380;2022-08-07T03:06:42;2.13;;;1.90;;
11300;SDS011;5706;50.650;13.380;2022-08-07T03:09:13;2.33;;;1.80;;
11300;SDS011;5706;50.650;13.380;2022-08-07T03:11:43;2.20;;;1.93;;
11300;SDS011;5706;50.650;13.380;2022-08-07T03:14:14;2.10;;;2.00;;
11300;SDS011;5706;50.650;13.380;2022-08-07T03:16:43;2.87;;;1.70;;
11300;SDS011;5706;50.650;13.380;2022-08-07T03:19:11;2.33;;;2.13;;
11300;SDS011;5706;50.650;13.380;2022-08-07T03:21:39;2.93;;;1.83;;
11300;SDS011;5706;50.650;13.380;2022-08-07T03:24:07;1.70;;;1.60;;
11300;SDS011;5706;50.650;13.380;2022-08-07T03:26:35;2.07;;;1.70;;
11300;SDS011;5706;50.650;13.380;2022-08-07T03:29:05;2.60;;;1.67;;
11300;SDS011;5706;50.650;13.380;2022-08-07T03:31:40;1.80;;;1.70;;
11300;SDS011;5706;50.650;13.380;2022-08-07T03:34:09;1.93;;;1.80;;
11300;SDS011;5706;50.650;13.380;2022-08-07T03:36:40;2.53;;;2.33;;
11300;SDS011;5706;50.650;13.380;2022-08-07T03:39:10;3.33;;;1.80;;
11300;SDS011;5706;50.650;13.380;2022-08-07T03:41:41;2.20;;;2.00;;
11300;SDS011;5706;50.650;13.380;2022-08-07T03:44:09;2.33;;;1.90;;
11300;SDS011;5706;50.650;13.380;2022-08-07T03:46:37;1.70;;;1.60;;
11300;SDS011;5706;50.650;13.380;2022-08-07T03:49:07;1.73;;;1.63;;
11300;SDS011;5706;50.650;13.380;2022-08-07T03:51:36;3.60;;;1.80;;
11300;SDS011;5706;50.650;13.380;2022-08-07T03:54:04;1.80;;;1.70;;
11300;SDS011;5706;50.650;13.380;2022-08-07T03:56:32;2.43;;;2.03;;
11300;SDS011;5706;50.650;13.380;2022-08-07T03:59:02;2.07;;;1.93;;
11300;SDS011;5706;50.650;13.380;2022-08-07T04:01:33;3.23;;;1.70;;
11300;SDS011;5706;50.650;13.380;2022-08-07T04:04:06;3.83;;;1.90;;
11300;SDS011;5706;50.650;13.380;2022-08-07T04:06:35;1.97;;;1.83;;
11300;SDS011;5706;50.650;13.380;2022-08-07T04:09:05;1.70;;;1.60;;
11300;SDS011;5706;50.650;13.380;2022-08-07T04:11:33;1.67;;;1.57;;
11300;SDS011;5706;50.650;13.380;2022-08-07T04:14:02;2.30;;;1.87;;
11300;SDS011;5706;50.650;13.380;2022-08-07T04:16:31;2.20;;;2.00;;
11300;SDS011;5706;50.650;13.380;2022-08-07T04:18:59;3.30;;;2.37;;
11300;SDS011;5706;50.650;13.380;2022-08-07T04:21:30;1.80;;;1.70;;
11300;SDS011;5706;50.650;13.380;2022-08-07T04:23:58;2.83;;;1.90;;
11300;SDS011;5706;50.650;13.380;2022-08-07T04:26:29;2.07;;;1.97;;
11300;SDS011;5706;50.650;13.380;2022-08-07T04:28:56;2.00;;;1.80;;
11300;SDS011;5706;50.650;13.380;2022-08-07T04:31:24;2.20;;;2.00;;
11300;SDS011;5706;50.650;13.380;2022-08-07T04:33:52;1.97;;;1.83;;
11300;SDS011;5706;50.650;13.380;2022-08-07T04:36:21;3.30;;;2.10;;
11300;SDS011;5706;50.650;13.380;2022-08-07T04:38:50;2.57;;;1.77;;
11300;SDS011;5706;50.650;13.380;2022-08-07T04:41:18;1.87;;;1.40;;
11300;SDS011;5706;50.650;13.380;2022-08-07T04:43:45;1.80;;;1.70;;
11300;SDS011;5706;50.650;13.380;2022-08-07T04:46:16;2.03;;;1.80;;
11300;SDS011;5706;50.650;13.380;2022-08-07T04:49:01;1.90;;;1.80;;
11300;SDS011;5706;50.650;13.380;2022-08-07T04:51:42;3.20;;;1.90;;
11300;SDS011;5706;50.650;13.380;2022-08-07T04:54:23;1.80;;;1.70;;
11300;SDS011;5706;50.650;13.380;2022-08-07T04:57:01;2.60;;;1.87;;
11300;SDS011;5706;50.650;13.380;2022-08-07T04:59:42;1.93;;;1.83;;
11300;SDS011;5706;50.650;13.380;2022-08-07T05:02:20;1.97;;;1.87;;
11300;SDS011;5706;50.650;13.380;2022-08-07T05:04:56;2.10;;;1.90;;
11300;SDS011;5706;50.650;13.380;2022-08-07T05:07:31;1.90;;;1.80;;
11300;SDS011;5706;50.650;13.380;2022-08-07T05:10:08;2.07;;;1.87;;
11300;SDS011;5706;50.650;13.380;2022-08-07T05:12:50;2.27;;;2.07;;
11300;SDS011;5706;50.650;13.380;2022-08-07T05:15:25;1.93;;;1.83;;
11300;SDS011;5706;50.650;13.380;2022-08-07T05:18:01;1.73;;;1.63;;
11300;SDS011;5706;50.650;13.380;2022-08-07T05:20:34;2.10;;;2.00;;
11300;SDS011;5706;50.650;13.380;2022-08-07T05:23:08;1.87;;;1.77;;
11300;SDS011;5706;50.650;13.380;2022-08-07T05:25:43;1.80;;;1.67;;
11300;SDS011;5706;50.650;13.380;2022-08-07T05:28:13;1.73;;;1.63;;
11300;SDS011;5706;50.650;13.380;2022-08-07T05:30:43;1.73;;;1.63;;
11300;SDS011;5706;50.650;13.380;2022-08-07T05:33:13;1.63;;;1.53;;
11300;SDS011;5706;50.650;13.380;2022-08-07T05:35:41;3.10;;;1.90;;
11300;SDS011;5706;50.650;13.380;2022-08-07T05:38:10;2.20;;;1.60;;
11300;SDS011;5706;50.650;13.380;2022-08-07T05:40:39;3.27;;;1.83;;
11300;SDS011;5706;50.650;13.380;2022-08-07T05:43:08;2.07;;;1.80;;
11300;SDS011;5706;50.650;13.380;2022-08-07T05:45:36;3.37;;;2.10;;
11300;SDS011;5706;50.650;13.380;2022-08-07T05:48:04;2.00;;;1.80;;
11300;SDS011;5706;50.650;13.380;2022-08-07T05:50:33;4.17;;;1.70;;
11300;SDS011;5706;50.650;13.380;2022-08-07T05:53:02;1.60;;;1.50;;
11300;SDS011;5706;50.650;13.380;2022-08-07T05:55:31;2.00;;;1.90;;
11300;SDS011;5706;50.650;13.380;2022-08-07T05:58:00;1.50;;;1.40;;
11300;SDS011;5706;50.650;13.380;2022-08-07T06:00:32;1.40;;;1.30;;
11300;SDS011;5706;50.650;13.380;2022-08-07T06:03:01;2.30;;;1.60;;
11300;SDS011;5706;50.650;13.380;2022-08-07T06:05:34;1.20;;;1.20;;
11300;SDS011;5706;50.650;13.380;2022-08-07T06:08:03;1.40;;;1.30;;
11300;SDS011;5706;50.650;13.380;2022-08-07T06:10:32;1.40;;;1.30;;
11300;SDS011;5706;50.650;13.380;2022-08-07T06:13:00;1.80;;;1.30;;
11300;SDS011;5706;50.650;13.380;2022-08-07T06:15:31;3.13;;;1.40;;
11300;SDS011;5706;50.650;13.380;2022-08-07T06:18:02;1.23;;;1.23;;
11300;SDS011;5706;50.650;13.380;2022-08-07T06:20:33;1.63;;;1.53;;
11300;SDS011;5706;50.650;13.380;2022-08-07T06:23:02;1.70;;;1.60;;
11300;SDS011;5706;50.650;13.380;2022-08-07T06:25:33;1.30;;;1.20;;
11300;SDS011;5706;50.650;13.380;2022-08-07T06:28:02;1.77;;;1.20;;
11300;SDS011;5706;50.650;13.380;2022-08-07T06:30:32;1.83;;;1.50;;
11300;SDS011;5706;50.650;13.380;2022-08-07T06:33:00;2.57;;;1.33;;
11300;SDS011;5706;50.650;13.380;2022-08-07T06:35:29;1.30;;;1.30;;
11300;SDS011;5706;50.650;13.380;2022-08-07T06:37:59;1.43;;;1.33;;
11300;SDS011;5706;50.650;13.380;2022-08-07T06:40:29;1.10;;;1.00;;
11300;SDS011;5706;50.650;13.380;2022-08-07T06:43:02;1.00;;;0.90;;
11300;SDS011;5706;50.650;13.380;2022-08-07T06:45:37;1.70;;;1.20;;
11300;SDS011;5706;50.650;13.380;2022-08-07T06:48:05;1.10;;;1.10;;
11300;SDS011;5706;50.650;13.380;2022-08-07T06:50:33;1.70;;;1.30;;
11300;SDS011;5706;50.650;13.380;2022-08-07T06:53:07;1.47;;;1.10;;
11300;SDS011;5706;50.650;13.380;2022-08-07T06:55:37;2.30;;;1.10;;
11300;SDS011;5706;50.650;13.380;2022-08-07T06:58:08;1.13;;;1.03;;
11300;SDS011;5706;50.650;13.380;2022-08-07T07:00:40;0.97;;;0.93;;
11300;SDS011;5706;50.650;13.380;2022-08-07T07:03:10;1.87;;;0.90;;
11300;SDS011;5706;50.650;13.380;2022-08-07T07:05:39;1.37;;;1.00;;
11300;SDS011;5706;50.650;13.380;2022-08-07T07:08:07;1.30;;;0.87;;
11300;SDS011;5706;50.650;13.380;2022-08-07T07:10:36;1.40;;;1.07;;
11300;SDS011;5706;50.650;13.380;2022-08-07T07:13:06;1.20;;;1.10;;
11300;SDS011;5706;50.650;13.380;2022-08-07T07:15:45;1.20;;;1.10;;
11300;SDS011;5706;50.650;13.380;2022-08-07T07:18:21;1.27;;;1.00;;
11300;SDS011;5706;50.650;13.380;2022-08-07T07:20:55;0.98;;;0.82;;
11300;SDS011;5706;50.650;13.380;2022-08-07T07:23:30;1.05;;;1.00;;
11300;SDS011;5706;50.650;13.380;2022-08-07T07:26:00;2.83;;;1.30;;
11300;SDS011;5706;50.650;13.380;2022-08-07T07:28:34;1.50;;;1.15;;
11300;SDS011;5706;50.650;13.380;2022-08-07T07:31:09;1.20;;;1.00;;
11300;SDS011;5706;50.650;13.380;2022-08-07T07:33:45;3.00;;;1.30;;
11300;SDS011;5706;50.650;13.380;2022-08-07T07:36:22;2.42;;;0.90;;
11300;SDS011;5706;50.650;13.380;2022-08-07T07:38:52;1.42;;;0.88;;
11300;SDS011;5706;50.650;13.380;2022-08-07T07:41:20;1.02;;;0.88;;
11300;SDS011;5706;50.650;13.380;2022-08-07T07:43:50;1.05;;;0.95;;
11300;SDS011;5706;50.650;13.380;2022-08-07T07:46:22;1.85;;;1.05;;
11300;SDS011;5706;50.650;13.380;2022-08-07T07:48:51;1.08;;;0.93;;
11300;SDS011;5706;50.650;13.380;2022-08-07T07:51:21;1.25;;;0.98;;
11300;SDS011;5706;50.650;13.380;2022-08-07T07:53:50;1.10;;;0.90;;
11300;SDS011;5706;50.650;13.380;2022-08-07T07:56:22;2.25;;;0.90;;
11300;SDS011;5706;50.650;13.380;2022-08-07T07:58:53;1.10;;;1.00;;
11300;SDS011;5706;50.650;13.380;2022-08-07T08:01:25;1.15;;;0.98;;
11300;SDS011;5706;50.650;13.380;2022-08-07T08:03:55;1.23;;;1.00;;
11300;SDS011;5706;50.650;13.380;2022-08-07T08:06:29;0.73;;;0.73;;
11300;SDS011;5706;50.650;13.380;2022-08-07T08:08:58;2.40;;;1.10;;
11300;SDS011;5706;50.650;13.380;2022-08-07T08:11:30;2.05;;;1.00;;
11300;SDS011;5706;50.650;13.380;2022-08-07T08:13:59;2.67;;;0.85;;
11300;SDS011;5706;50.650;13.380;2022-08-07T08:16:31;2.10;;;1.13;;
11300;SDS011;5706;50.650;13.380;2022-08-07T08:19:03;1.33;;;1.10;;
11300;SDS011;5706;50.650;13.380;2022-08-07T08:21:33;1.10;;;0.90;;
11300;SDS011;5706;50.650;13.380;2022-08-07T08:24:23;1.42;;;1.10;;
11300;SDS011;5706;50.650;13.380;2022-08-07T08:27:14;2.45;;;1.05;;
11300;SDS011;5706;50.650;13.380;2022-08-07T08:29:47;2.00;;;1.42;;
11300;SDS011;5706;50.650;13.380;2022-08-07T08:32:23;1.50;;;0.95;;
11300;SDS011;5706;50.650;13.380;2022-08-07T08:34:56;1.23;;;1.10;;
11300;SDS011;5706;50.650;13.380;2022-08-07T08:37:26;3.13;;;0.90;;
11300;SDS011;5706;50.650;13.380;2022-08-07T08:39:56;2.13;;;1.15;;
11300;SDS011;5706;50.650;13.380;2022-08-07T08:42:26;2.42;;;1.13;;
11300;SDS011;5706;50.650;13.380;2022-08-07T08:45:10;2.65;;;1.10;;
11300;SDS011;5706;50.650;13.380;2022-08-07T08:47:54;1.42;;;1.15;;
11300;SDS011;5706;50.650;13.380;2022-08-07T08:50:36;3.08;;;1.50;;
11300;SDS011;5706;50.650;13.380;2022-08-07T08:53:11;2.92;;;0.98;;
11300;SDS011;5706;50.650;13.380;2022-08-07T08:55:51;1.27;;;1.17;;
11300;SDS011;5706;50.650;13.380;2022-08-07T08:58:30;2.55;;;1.08;;
11300;SDS011;5706;50.650;13.380;2022-08-07T09:01:10;1.17;;;1.00;;
11300;SDS011;5706;50.650;13.380;2022-08-07T09:03:51;3.42;;;1.30;;
11300;SDS011;5706;50.650;13.380;2022-08-07T09:06:36;1.38;;;0.98;;
11300;SDS011;5706;50.650;13.380;2022-08-07T09:09:23;2.80;;;1.10;;
11300;SDS011;5706;50.650;13.380;2022-08-07T09:12:15;2.35;;;1.40;;
11300;SDS011;5706;50.650;13.380;2022-08-07T09:15:11;1.70;;;1.27;;
11300;SDS011;5706;50.650;13.380;2022-08-07T09:18:00;2.40;;;1.20;;
11300;SDS011;5706;50.650;13.380;2022-08-07T09:20:50;1.75;;;1.17;;
11300;SDS011;5706;50.650;13.380;2022-08-07T09:23:50;1.42;;;1.15;;
11300;SDS011;5706;50.650;13.380;2022-08-07T09:26:30;1.17;;;1.10;;
11300;SDS011;5706;50.650;13.380;2022-08-07T09:29:12;1.35;;;0.95;;
11300;SDS011;5706;50.650;13.380;2022-08-07T09:31:55;1.92;;;1.27;;
11300;SDS011;5706;50.650;13.380;2022-08-07T09:34:40;2.08;;;1.10;;
11300;SDS011;5706;50.650;13.380;2022-08-07T09:37:27;2.83;;;1.30;;
11300;SDS011;5706;50.650;13.380;2022-08-07T09:40:08;2.70;;;1.38;;
11300;SDS011;5706;50.650;13.380;2022-08-07T09:42:51;2.90;;;1.08;;
11300;SDS011;5706;50.650;13.380;2022-08-07T09:45:33;3.58;;;1.60;;
11300;SDS011;5706;50.650;13.380;2022-08-07T09:48:16;2.28;;;1.40;;
11300;SDS011;5706;50.650;13.380;2022-08-07T09:51:04;1.58;;;1.02;;
11300;SDS011;5706;50.650;13.380;2022-08-07T09:53:49;2.35;;;1.38;;
11300;SDS011;5706;50.650;13.380;2022-08-07T09:56:39;4.22;;;1.20;;
11300;SDS011;5706;50.650;13.380;2022-08-07T09:59:51;4.72;;;1.10;;
11300;SDS011;5706;50.650;13.380;2022-08-07T10:02:41;1.40;;;1.30;;
11300;SDS011;5706;50.650;13.380;2022-08-07T10:05:54;2.28;;;1.23;;
11300;SDS011;5706;50.650;13.380;2022-08-07T10:12:36;2.90;;;1.17;;
11300;SDS011;5706;50.650;13.380;2022-08-07T10:15:36;2.97;;;1.27;;
11300;SDS011;5706;50.650;13.380;2022-08-07T10:18:23;3.72;;;1.20;;
11300;SDS011;5706;50.650;13.380;2022-08-07T10:21:38;1.05;;;0.98;;
11300;SDS011;5706;50.650;13.380;2022-08-07T10:27:27;2.72;;;1.10;;
11300;SDS011;5706;50.650;13.380;2022-08-07T10:30:12;2.53;;;1.05;;
11300;SDS011;5706;50.650;13.380;2022-08-07T10:32:55;4.63;;;1.25;;
11300;SDS011;5706;50.650;13.380;2022-08-07T10:35:48;7.93;;;5.68;;
11300;SDS011;5706;50.650;13.380;2022-08-07T10:38:37;2.95;;;1.60;;
11300;SDS011;5706;50.650;13.380;2022-08-07T10:41:20;2.00;;;1.33;;
11300;SDS011;5706;50.650;13.380;2022-08-07T10:44:01;1.17;;;1.13;;
11300;SDS011;5706;50.650;13.380;2022-08-07T10:46:41;2.95;;;1.30;;
11300;SDS011;5706;50.650;13.380;2022-08-07T10:49:20;1.23;;;1.13;;
11300;SDS011;5706;50.650;13.380;2022-08-07T10:51:54;2.05;;;1.10;;
11300;SDS011;5706;50.650;13.380;2022-08-07T10:54:34;3.15;;;1.15;;
11300;SDS011;5706;50.650;13.380;2022-08-07T10:57:12;1.02;;;0.90;;
11300;SDS011;5706;50.650;13.380;2022-08-07T11:00:00;1.75;;;1.17;;
11300;SDS011;5706;50.650;13.380;2022-08-07T11:02:36;1.67;;;1.40;;
11300;SDS011;5706;50.650;13.380;2022-08-07T11:05:13;1.38;;;1.02;;
11300;SDS011;5706;50.650;13.380;2022-08-07T11:07:58;1.38;;;1.10;;
11300;SDS011;5706;50.650;13.380;2022-08-07T11:10:38;3.17;;;1.67;;
11300;SDS011;5706;50.650;13.380;2022-08-07T11:13:17;1.40;;;1.13;;
11300;SDS011;5706;50.650;13.380;2022-08-07T11:16:07;2.90;;;1.17;;
11300;SDS011;5706;50.650;13.380;2022-08-07T11:18:45;2.80;;;0.90;;
11300;SDS011;5706;50.650;13.380;2022-08-07T11:21:25;1.40;;;1.30;;
11300;SDS011;5706;50.650;13.380;2022-08-07T11:24:03;0.90;;;0.90;;
11300;SDS011;5706;50.650;13.380;2022-08-07T11:26:38;3.45;;;1.15;;
11300;SDS011;5706;50.650;13.380;2022-08-07T11:29:18;1.42;;;1.13;;
11300;SDS011;5706;50.650;13.380;2022-08-07T11:31:56;2.03;;;1.15;;
11300;SDS011;5706;50.650;13.380;2022-08-07T11:34:35;1.08;;;0.98;;
11300;SDS011;5706;50.650;13.380;2022-08-07T11:37:13;1.42;;;1.27;;
11300;SDS011;5706;50.650;13.380;2022-08-07T11:39:53;2.55;;;1.00;;
11300;SDS011;5706;50.650;13.380;2022-08-07T11:42:40;1.30;;;1.20;;
11300;SDS011;5706;50.650;13.380;2022-08-07T11:45:27;1.85;;;1.30;;
11300;SDS011;5706;50.650;13.380;2022-08-07T11:48:22;1.48;;;1.30;;
11300;SDS011;5706;50.650;13.380;2022-08-07T11:51:10;2.63;;;1.20;;
11300;SDS011;5706;50.650;13.380;2022-08-07T11:53:54;0.98;;;0.98;;
11300;SDS011;5706;50.650;13.380;2022-08-07T11:56:35;5.07;;;1.23;;
11300;SDS011;5706;50.650;13.380;2022-08-07T11:59:27;1.33;;;1.02;;
11300;SDS011;5706;50.650;13.380;2022-08-07T12:02:40;1.90;;;1.08;;
11300;SDS011;5706;50.650;13.380;2022-08-07T12:05:33;1.50;;;1.13;;
11300;SDS011;5706;50.650;13.380;2022-08-07T12:08:20;1.58;;;1.17;;
11300;SDS011;5706;50.650;13.380;2022-08-07T12:10:53;2.47;;;1.10;;
11300;SDS011;5706;50.650;13.380;2022-08-07T12:13:27;2.78;;;1.20;;
11300;SDS011;5706;50.650;13.380;2022-08-07T12:16:09;2.92;;;1.30;;
11300;SDS011;5706;50.650;13.380;2022-08-07T12:18:47;2.10;;;1.20;;
11300;SDS011;5706;50.650;13.380;2022-08-07T12:21:27;1.48;;;0.95;;
11300;SDS011;5706;50.650;13.380;2022-08-07T12:24:09;1.20;;;1.10;;
11300;SDS011;5706;50.650;13.380;2022-08-07T12:26:47;1.33;;;1.02;;
11300;SDS011;5706;50.650;13.380;2022-08-07T12:29:31;1.10;;;0.82;;
11300;SDS011;5706;50.650;13.380;2022-08-07T12:32:10;1.48;;;1.10;;
11300;SDS011;5706;50.650;13.380;2022-08-07T12:34:47;2.25;;;1.00;;
11300;SDS011;5706;50.650;13.380;2022-08-07T12:37:18;2.15;;;1.10;;
11300;SDS011;5706;50.650;13.380;2022-08-07T12:39:49;1.02;;;0.90;;
11300;SDS011;5706;50.650;13.380;2022-08-07T12:42:19;2.83;;;1.42;;
11300;SDS011;5706;50.650;13.380;2022-08-07T12:44:53;2.60;;;1.02;;
11300;SDS011;5706;50.650;13.380;2022-08-07T12:47:25;2.33;;;1.38;;
11300;SDS011;5706;50.650;13.380;2022-08-07T12:50:05;1.92;;;1.25;;
11300;SDS011;5706;50.650;13.380;2022-08-07T12:52:46;2.40;;;0.88;;
11300;SDS011;5706;50.650;13.380;2022-08-07T12:55:23;1.13;;;1.00;;
11300;SDS011;5706;50.650;13.380;2022-08-07T12:57:58;2.22;;;1.30;;
11300;SDS011;5706;50.650;13.380;2022-08-07T13:00:30;2.20;;;0.95;;
11300;SDS011;5706;50.650;13.380;2022-08-07T13:03:25;1.85;;;1.15;;
11300;SDS011;5706;50.650;13.380;2022-08-07T13:06:32;0.90;;;0.90;;
11300;SDS011;5706;50.650;13.380;2022-08-07T13:09:21;0.95;;;0.93;;
11300;SDS011;5706;50.650;13.380;2022-08-07T13:12:06;2.03;;;1.15;;
11300;SDS011;5706;50.650;13.380;2022-08-07T13:14:45;2.05;;;1.00;;
11300;SDS011;5706;50.650;13.380;2022-08-07T13:17:29;1.10;;;1.10;;
11300;SDS011;5706;50.650;13.380;2022-08-07T13:20:11;2.33;;;1.10;;
11300;SDS011;5706;50.650;13.380;2022-08-07T13:22:48;1.25;;;1.10;;
11300;SDS011;5706;50.650;13.380;2022-08-07T13:25:24;0.73;;;0.73;;
11300;SDS011;5706;50.650;13.380;2022-08-07T13:28:03;0.85;;;0.85;;
11300;SDS011;5706;50.650;13.380;2022-08-07T13:30:42;2.42;;;0.93;;
11300;SDS011;5706;50.650;13.380;2022-08-07T13:33:20;1.52;;;1.02;;
11300;SDS011;5706;50.650;13.380;2022-08-07T13:36:00;1.35;;;1.00;;
11300;SDS011;5706;50.650;13.380;2022-08-07T13:38:38;0.98;;;0.98;;
11300;SDS011;5706;50.650;13.380;2022-08-07T13:41:19;1.80;;;1.20;;
11300;SDS011;5706;50.650;13.380;2022-08-07T13:43:59;1.95;;;1.15;;
11300;SDS011;5706;50.650;13.380;2022-08-07T13:46:32;3.17;;;1.40;;
11300;SDS011;5706;50.650;13.380;2022-08-07T13:49:05;2.83;;;1.20;;
11300;SDS011;5706;50.650;13.380;2022-08-07T13:51:39;1.10;;;0.93;;
11300;SDS011;5706;50.650;13.380;2022-08-07T13:54:10;1.92;;;1.08;;
11300;SDS011;5706;50.650;13.380;2022-08-07T13:56:40;1.58;;;1.17;;
11300;SDS011;5706;50.650;13.380;2022-08-07T13:59:11;2.33;;;1.15;;
11300;SDS011;5706;50.650;13.380;2022-08-07T14:01:52;3.42;;;1.40;;
11300;SDS011;5706;50.650;13.380;2022-08-07T14:04:31;1.27;;;1.17;;
11300;SDS011;5706;50.650;13.380;2022-08-07T14:07:11;2.38;;;1.35;;
11300;SDS011;5706;50.650;13.380;2022-08-07T14:09:42;1.17;;;1.05;;
11300;SDS011;5706;50.650;13.380;2022-08-07T14:12:12;1.55;;;1.20;;
11300;SDS011;5706;50.650;13.380;2022-08-07T14:14:51;1.20;;;1.10;;
11300;SDS011;5706;50.650;13.380;2022-08-07T14:17:27;1.50;;;1.10;;
11300;SDS011;5706;50.650;13.380;2022-08-07T14:20:03;1.40;;;1.10;;
11300;SDS011;5706;50.650;13.380;2022-08-07T14:22:40;1.10;;;1.00;;
11300;SDS011;5706;50.650;13.380;2022-08-07T14:25:14;0.95;;;0.95;;
11300;SDS011;5706;50.650;13.380;2022-08-07T14:27:45;2.20;;;1.30;;
11300;SDS011;5706;50.650;13.380;2022-08-07T14:30:17;1.27;;;1.00;;
11300;SDS011;5706;50.650;13.380;2022-08-07T14:32:47;1.90;;;1.05;;
11300;SDS011;5706;50.650;13.380;2022-08-07T14:35:23;2.15;;;1.40;;
11300;SDS011;5706;50.650;13.380;2022-08-07T14:37:56;1.52;;;0.93;;
11300;SDS011;5706;50.650;13.380;2022-08-07T14:40:27;1.02;;;1.00;;
11300;SDS011;5706;50.650;13.380;2022-08-07T14:42:57;1.30;;;1.20;;
11300;SDS011;5706;50.650;13.380;2022-08-07T14:45:31;1.63;;;1.08;;
11300;SDS011;5706;50.650;13.380;2022-08-07T14:48:07;2.28;;;1.20;;
11300;SDS011;5706;50.650;13.380;2022-08-07T14:50:40;1.50;;;1.27;;
11300;SDS011;5706;50.650;13.380;2022-08-07T14:53:12;1.65;;;1.25;;
11300;SDS011;5706;50.650;13.380;2022-08-07T14:55:43;1.10;;;1.10;;
11300;SDS011;5706;50.650;13.380;2022-08-07T14:58:14;1.23;;;1.02;;
11300;SDS011;5706;50.650;13.380;2022-08-07T15:00:48;1.17;;;1.17;;
11300;SDS011;5706;50.650;13.380;2022-08-07T15:03:20;1.20;;;1.10;;
11300;SDS011;5706;50.650;13.380;2022-08-07T15:05:51;1.38;;;1.08;;
11300;SDS011;5706;50.650;13.380;2022-08-07T15:08:22;1.23;;;1.00;;
11300;SDS011;5706;50.650;13.380;2022-08-07T15:10:56;2.22;;;1.00;;
11300;SDS011;5706;50.650;13.380;2022-08-07T15:13:29;1.33;;;1.10;;
11300;SDS011;5706;50.650;13.380;2022-08-07T15:16:01;2.08;;;1.20;;
11300;SDS011;5706;50.650;13.380;2022-08-07T15:18:36;0.95;;;0.93;;
11300;SDS011;5706;50.650;13.380;2022-08-07T15:21:11;1.27;;;1.00;;
11300;SDS011;5706;50.650;13.380;2022-08-07T15:23:45;1.23;;;1.02;;
11300;SDS011;5706;50.650;13.380;2022-08-07T15:26:18;1.20;;;1.10;;
11300;SDS011;5706;50.650;13.380;2022-08-07T15:29:02;0.98;;;0.90;;
11300;SDS011;5706;50.650;13.380;2022-08-07T15:31:34;1.33;;;1.13;;
11300;SDS011;5706;50.650;13.380;2022-08-07T15:34:02;1.00;;;1.00;;
11300;SDS011;5706;50.650;13.380;2022-08-07T15:36:32;1.98;;;0.93;;
11300;SDS011;5706;50.650;13.380;2022-08-07T15:39:02;1.00;;;0.90;;
11300;SDS011;5706;50.650;13.380;2022-08-07T15:41:36;2.80;;;1.15;;